Main page
METAR-TAF:

METAR-TAF

Airports :

Albert – Picardie Airport

Albert, France

latitude: 49-58-21N, longitude: 002-41-29E, elevation: 111 m

Current weather observation

The report was made 36 minutes ago, at 09:30 UTC
Wind 10 kt from the North
Temperature 8°C
Humidity 87%
Pressure 1029 hPa
Visibility 10 km or more
Few clouds at a height of 1200 ft
Broken clouds at a height of 4300 ft
Overcast at a height of 4900 ft

METAR: LFAQ 240930Z AUTO 36010KT 9999 FEW012 BKN043 OVC049 08/06 Q1029 NOSIG

Time: 11:06 (10:06 UTC)

Forecast

The report was made 2 hours and 6 minutes ago, at 08:00 UTC
Forecast valid from 24 at 09 UTC to 24 at 18 UTC
Wind 10 kt from the North
Visibility 10 km or more
Overcast at a height of 4000 ft
Temporary
from 24 at 09 UTC to 24 at 10 UTC
Broken clouds at a height of 1300 ft

TAF: LFAQ 240800Z 2409/2418 36010KT 9999 OVC040 TEMPO 2409/2410 BKN013

Weather observations and forecasts of more than 4000 airports (METAR and TAF reports).

The available stations are represented by yellow and red dots on the map.

Hover mouse over dot to see the name of the station.

Then click to see weather observations and forecasts.

To change the map : click on the green buttons with a black cross to zoom in, on the green button with a dash to zoom out, or on the green arrows for adjacent maps.


METAR-TAF: